Fairfield, NJ (07004)

3:21 AM EST on December 19, 2014 (GMT -0500)
KNJMONTV2 | Change Station
CLOSE
Current Station
Personal Weather Station
Location: Montville, NJ
Elevation: 410 ft
Nearby Weather Stations

Elev 410 ft 40.89 °N, 74.35 °W | Updated 3 minutes ago

Scattered Clouds
Scattered Clouds
34.4 °F
Feels Like 34 °F
N
1.0
Wind Variable Wind from NW
Gusts 2.0 mph

Today
High -- | Low -- °F
--% Chance of Precip.
Yesterday
High -- | Low -- °F
Precip. -- in
7:17 AM 4:31 PM
Waning Crescent, 9% visible
Pressure 30.00 in
Visibility 10.0 miles
Clouds Scattered Clouds 3600 ft
Windchill 34 °F
Dew Point 27 °F
Humidity 74%
Rainfall 0.00 in
Snow Depth Not available.
UV 0 out of 12
Pollen .10 out of 12
Air Quality Not available.
Flu Activity Not available.
METAR KCDW 190753Z AUTO 32007KT 10SM SCT036 02/M05 A2998 RMK AO2 SLP159 T00221050 TSNO

More Conditions Fewer Conditions

Pressure 30.00 in
Visibility 10.0 miles
Clouds Scattered Clouds 3600 ft
Windchill 34 °F
Dew Point 27 °F
Humidity 74%
Rainfall 0.00 in
Snow Depth Not available.
UV 0 out of 12
Pollen .10 out of 12
Air Quality Not available.
Flu Activity Not available.
METAR KCDW 190753Z AUTO 32007KT 10SM SCT036 02/M05 A2998 RMK AO2 SLP159 T00221050 TSNO

More Conditions Fewer Conditions

10-Day Weather Forecast

Almanac

Astronomy

Dec. 19, 2014 Rise Set
Actual Time
Civil Twilight
Nautical Twilight
Astronomical Twilight
Moon
Length of Visible Light
Length of Day
Tomorrow will be .
, % of the Moon is Illuminated

Today's Extremes

State Highs State Lows

Community

WunderPhotos

Upload Photos

1,778,953 photos uploaded!

WunderBlogs® & News

Nearby

Air Quality

  Air Quality AQ Index Pollutant
Not available.

Snow Depth

Station Depth Elevation

Earthquake Activity

City Distance Mag. Time & Date
Minimum magnitude displayed is 2.5.

Coastal Water Temperatures

Place Temperature

Nearby Weather Stations